sensor_id;sensor_type;location;lat;lon;timestamp;pressure;altitude;pressure_sealevel;temperature;humidity
32131;BME280;18639;50.716;7.086;2023-02-11T00:05:34;102295.78;;;5.44;100.00
32131;BME280;18639;50.716;7.086;2023-02-11T00:08:03;102265.88;;;5.41;100.00
32131;BME280;18639;50.716;7.086;2023-02-11T00:10:54;102283.03;;;5.35;100.00
32131;BME280;18639;50.716;7.086;2023-02-11T00:13:20;102330.50;;;5.69;100.00
32131;BME280;18639;50.716;7.086;2023-02-11T00:16:04;102321.09;;;5.70;100.00
32131;BME280;18639;50.716;7.086;2023-02-11T00:19:05;102313.41;;;5.67;100.00
32131;BME280;18639;50.716;7.086;2023-02-11T00:21:56;102306.63;;;5.66;100.00
32131;BME280;18639;50.716;7.086;2023-02-11T00:24:22;102249.81;;;5.29;100.00
32131;BME280;18639;50.716;7.086;2023-02-11T00:26:47;102324.66;;;5.60;100.00
32131;BME280;18639;50.716;7.086;2023-02-11T00:29:33;102193.91;;;4.89;100.00
32131;BME280;18639;50.716;7.086;2023-02-11T00:32:22;102307.63;;;5.54;100.00
32131;BME280;18639;50.716;7.086;2023-02-11T00:34:51;102265.16;;;5.32;100.00
32131;BME280;18639;50.716;7.086;2023-02-11T00:37:22;102205.78;;;4.96;100.00
32131;BME280;18639;50.716;7.086;2023-02-11T00:39:47;102299.13;;;5.49;100.00
32131;BME280;18639;50.716;7.086;2023-02-11T00:42:18;102262.72;;;5.20;100.00
32131;BME280;18639;50.716;7.086;2023-02-11T00:44:49;102293.19;;;5.45;100.00
32131;BME280;18639;50.716;7.086;2023-02-11T00:47:26;102237.16;;;5.15;100.00
32131;BME280;18639;50.716;7.086;2023-02-11T00:50:24;102242.28;;;5.15;100.00
32131;BME280;18639;50.716;7.086;2023-02-11T00:53:03;102229.59;;;5.03;100.00
32131;BME280;18639;50.716;7.086;2023-02-11T00:55:44;102239.91;;;4.97;100.00
32131;BME280;18639;50.716;7.086;2023-02-11T00:58:18;102194.94;;;4.72;100.00
32131;BME280;18639;50.716;7.086;2023-02-11T01:04:09;102285.78;;;5.21;100.00
32131;BME280;18639;50.716;7.086;2023-02-11T01:06:34;102229.75;;;4.91;100.00
32131;BME280;18639;50.716;7.086;2023-02-11T01:09:02;102278.22;;;5.12;100.00
32131;BME280;18639;50.716;7.086;2023-02-11T01:11:28;102222.25;;;4.73;100.00
32131;BME280;18639;50.716;7.086;2023-02-11T01:13:54;102215.59;;;4.56;100.00
32131;BME280;18639;50.716;7.086;2023-02-11T01:16:20;102279.19;;;4.99;100.00
32131;BME280;18639;50.716;7.086;2023-02-11T01:18:45;102219.00;;;4.58;100.00
32131;BME280;18639;50.716;7.086;2023-02-11T01:21:11;102247.91;;;4.70;100.00
32131;BME280;18639;50.716;7.086;2023-02-11T01:23:36;102280.16;;;4.89;100.00
32131;BME280;18639;50.716;7.086;2023-02-11T01:26:02;102254.78;;;4.64;100.00
32131;BME280;18639;50.716;7.086;2023-02-11T01:28:28;102239.44;;;4.61;100.00
32131;BME280;18639;50.716;7.086;2023-02-11T01:30:54;102225.09;;;4.44;100.00
32131;BME280;18639;50.716;7.086;2023-02-11T01:33:20;102242.91;;;4.56;100.00
32131;BME280;18639;50.716;7.086;2023-02-11T01:35:46;102290.56;;;4.71;100.00
32131;BME280;18639;50.716;7.086;2023-02-11T01:38:17;102237.97;;;4.33;100.00
32131;BME280;18639;50.716;7.086;2023-02-11T01:40:54;102281.28;;;4.56;100.00
32131;BME280;18639;50.716;7.086;2023-02-11T01:43:21;102261.03;;;4.32;100.00
32131;BME280;18639;50.716;7.086;2023-02-11T01:48:14;102235.66;;;4.04;100.00
32131;BME280;18639;50.716;7.086;2023-02-11T01:50:41;102229.69;;;4.01;100.00
32131;BME280;18639;50.716;7.086;2023-02-11T01:53:08;102257.78;;;4.08;100.00
32131;BME280;18639;50.716;7.086;2023-02-11T01:55:53;102279.06;;;4.15;100.00
32131;BME280;18639;50.716;7.086;2023-02-11T01:58:41;102287.59;;;4.14;100.00
32131;BME280;18639;50.716;7.086;2023-02-11T02:01:10;102297.84;;;4.15;100.00
32131;BME280;18639;50.716;7.086;2023-02-11T02:03:39;102297.88;;;4.11;100.00
32131;BME280;18639;50.716;7.086;2023-02-11T02:06:11;102299.59;;;4.06;100.00
32131;BME280;18639;50.716;7.086;2023-02-11T02:08:43;102276.69;;;3.86;100.00
32131;BME280;18639;50.716;7.086;2023-02-11T02:11:13;102297.09;;;3.94;100.00
32131;BME280;18639;50.716;7.086;2023-02-11T02:13:42;102280.09;;;3.85;100.00
32131;BME280;18639;50.716;7.086;2023-02-11T02:16:15;102247.00;;;3.59;100.00
32131;BME280;18639;50.716;7.086;2023-02-11T02:24:49;102309.91;;;3.94;100.00
32131;BME280;18639;50.716;7.086;2023-02-11T02:27:31;102297.13;;;3.88;100.00
32131;BME280;18639;50.716;7.086;2023-02-11T02:40:37;102270.78;;;3.75;100.00
32131;BME280;18639;50.716;7.086;2023-02-11T02:43:08;102280.13;;;3.84;100.00
32131;BME280;18639;50.716;7.086;2023-02-11T02:45:34;102286.94;;;3.83;100.00
32131;BME280;18639;50.716;7.086;2023-02-11T02:47:59;102259.75;;;3.67;100.00
32131;BME280;18639;50.716;7.086;2023-02-11T02:50:30;102280.13;;;3.80;100.00
32131;BME280;18639;50.716;7.086;2023-02-11T02:53:19;102277.59;;;3.77;100.00
32131;BME280;18639;50.716;7.086;2023-02-11T02:55:56;102258.84;;;3.75;100.00
32131;BME280;18639;50.716;7.086;2023-02-11T03:01:15;102287.78;;;3.84;100.00
32131;BME280;18639;50.716;7.086;2023-02-11T03:06:52;102292.09;;;3.78;100.00
32131;BME280;18639;50.716;7.086;2023-02-11T03:09:50;102265.63;;;3.79;100.00
32131;BME280;18639;50.716;7.086;2023-02-11T03:12:19;102254.59;;;3.77;100.00
32131;BME280;18639;50.716;7.086;2023-02-11T03:14:48;102227.34;;;3.69;100.00
32131;BME280;18639;50.716;7.086;2023-02-11T03:17:16;102238.47;;;3.66;100.00
32131;BME280;18639;50.716;7.086;2023-02-11T03:19:43;102246.16;;;3.60;100.00
32131;BME280;18639;50.716;7.086;2023-02-11T03:22:14;102255.53;;;3.58;100.00
32131;BME280;18639;50.716;7.086;2023-02-11T03:24:42;102247.88;;;3.54;100.00
32131;BME280;18639;50.716;7.086;2023-02-11T03:27:26;102237.72;;;3.45;100.00
32131;BME280;18639;50.716;7.086;2023-02-11T03:30:12;102243.69;;;3.41;100.00
32131;BME280;18639;50.716;7.086;2023-02-11T03:32:45;102247.13;;;3.35;100.00
32131;BME280;18639;50.716;7.086;2023-02-11T03:35:31;102248.88;;;3.21;100.00
32131;BME280;18639;50.716;7.086;2023-02-11T03:38:33;102225.06;;;3.11;100.00
32131;BME280;18639;50.716;7.086;2023-02-11T03:41:01;102250.59;;;3.16;100.00
32131;BME280;18639;50.716;7.086;2023-02-11T03:43:36;102223.41;;;2.95;100.00
32131;BME280;18639;50.716;7.086;2023-02-11T03:46:08;102241.31;;;2.89;100.00
32131;BME280;18639;50.716;7.086;2023-02-11T03:48:50;102225.16;;;2.85;100.00
32131;BME280;18639;50.716;7.086;2023-02-11T03:51:38;102213.25;;;2.87;100.00
32131;BME280;18639;50.716;7.086;2023-02-11T03:54:42;102223.44;;;2.90;100.00
32131;BME280;18639;50.716;7.086;2023-02-11T03:57:41;102209.88;;;2.82;100.00
32131;BME280;18639;50.716;7.086;2023-02-11T04:00:08;102206.44;;;2.80;100.00
32131;BME280;18639;50.716;7.086;2023-02-11T04:02:35;102235.34;;;2.94;100.00
32131;BME280;18639;50.716;7.086;2023-02-11T04:05:02;102217.50;;;2.87;100.00
32131;BME280;18639;50.716;7.086;2023-02-11T04:07:36;102259.16;;;3.09;100.00
32131;BME280;18639;50.716;7.086;2023-02-11T04:10:37;102148.72;;;2.40;100.00
32131;BME280;18639;50.716;7.086;2023-02-11T04:22:39;102161.44;;;2.60;100.00
32131;BME280;18639;50.716;7.086;2023-02-11T04:28:07;102189.44;;;2.79;100.00
32131;BME280;18639;50.716;7.086;2023-02-11T04:30:38;102253.16;;;3.16;100.00
32131;BME280;18639;50.716;7.086;2023-02-11T04:33:12;102203.03;;;2.93;100.00
32131;BME280;18639;50.716;7.086;2023-02-11T04:35:43;102199.63;;;2.85;100.00
32131;BME280;18639;50.716;7.086;2023-02-11T04:38:43;102121.53;;;2.34;100.00
32131;BME280;18639;50.716;7.086;2023-02-11T04:41:09;102228.56;;;2.93;100.00
32131;BME280;18639;50.716;7.086;2023-02-11T04:43:34;102252.34;;;3.03;100.00
32131;BME280;18639;50.716;7.086;2023-02-11T04:46:00;102174.19;;;2.53;100.00
32131;BME280;18639;50.716;7.086;2023-02-11T04:48:34;102172.47;;;2.60;100.00
32131;BME280;18639;50.716;7.086;2023-02-11T04:51:14;102135.13;;;2.35;100.00
32131;BME280;18639;50.716;7.086;2023-02-11T04:53:55;102172.47;;;2.63;100.00
32131;BME280;18639;50.716;7.086;2023-02-11T04:56:21;102204.75;;;2.87;100.00
32131;BME280;18639;50.716;7.086;2023-02-11T04:58:46;102161.38;;;2.67;100.00
32131;BME280;18639;50.716;7.086;2023-02-11T05:01:15;102176.63;;;2.90;100.00
32131;BME280;18639;50.716;7.086;2023-02-11T05:03:43;102217.41;;;3.17;100.00
32131;BME280;18639;50.716;7.086;2023-02-11T05:06:09;102128.19;;;2.73;100.00
32131;BME280;18639;50.716;7.086;2023-02-11T05:08:47;102130.72;;;2.79;100.00
32131;BME280;18639;50.716;7.086;2023-02-11T05:11:25;102169.75;;;3.12;100.00
32131;BME280;18639;50.716;7.086;2023-02-11T05:13:56;102133.22;;;2.94;100.00
32131;BME280;18639;50.716;7.086;2023-02-11T05:16:22;102146.72;;;3.18;100.00
32131;BME280;18639;50.716;7.086;2023-02-11T05:18:47;102135.66;;;3.16;100.00
32131;BME280;18639;50.716;7.086;2023-02-11T05:21:16;102175.50;;;3.50;100.00
32131;BME280;18639;50.716;7.086;2023-02-11T05:23:44;102184.84;;;3.56;100.00
32131;BME280;18639;50.716;7.086;2023-02-11T05:26:23;102161.03;;;3.51;100.00
32131;BME280;18639;50.716;7.086;2023-02-11T05:29:00;102149.13;;;3.42;100.00
32131;BME280;18639;50.716;7.086;2023-02-11T05:32:13;102141.47;;;3.42;100.00
32131;BME280;18639;50.716;7.086;2023-02-11T05:35:10;102127.81;;;3.51;100.00
32131;BME280;18639;50.716;7.086;2023-02-11T05:37:34;102134.66;;;3.44;100.00
32131;BME280;18639;50.716;7.086;2023-02-11T05:39:59;102154.16;;;3.62;100.00
32131;BME280;18639;50.716;7.086;2023-02-11T05:43:00;102204.19;;;3.95;100.00
32131;BME280;18639;50.716;7.086;2023-02-11T05:45:26;102211.00;;;3.93;100.00
32131;BME280;18639;50.716;7.086;2023-02-11T05:47:51;102210.03;;;4.10;100.00
32131;BME280;18639;50.716;7.086;2023-02-11T05:50:26;102148.03;;;3.79;100.00
32131;BME280;18639;50.716;7.086;2023-02-11T05:52:51;102204.00;;;4.19;100.00
32131;BME280;18639;50.716;7.086;2023-02-11T05:59:14;102114.03;;;3.71;100.00
32131;BME280;18639;50.716;7.086;2023-02-11T06:01:43;102138.66;;;3.81;100.00
32131;BME280;18639;50.716;7.086;2023-02-11T06:04:09;102118.25;;;3.74;100.00
32131;BME280;18639;50.716;7.086;2023-02-11T06:06:35;102130.84;;;3.97;100.00
32131;BME280;18639;50.716;7.086;2023-02-11T06:09:00;102171.53;;;4.24;100.00
32131;BME280;18639;50.716;7.086;2023-02-11T06:11:25;102173.16;;;4.34;100.00
32131;BME280;18639;50.716;7.086;2023-02-11T06:13:51;102163.81;;;4.30;100.00
32131;BME280;18639;50.716;7.086;2023-02-11T06:16:16;102164.56;;;4.38;100.00
32131;BME280;18639;50.716;7.086;2023-02-11T06:18:42;102167.97;;;4.40;100.00
32131;BME280;18639;50.716;7.086;2023-02-11T06:21:08;102156.03;;;4.39;100.00
32131;BME280;18639;50.716;7.086;2023-02-11T06:23:37;102170.47;;;4.48;100.00
32131;BME280;18639;50.716;7.086;2023-02-11T06:26:09;102184.81;;;4.62;100.00
32131;BME280;18639;50.716;7.086;2023-02-11T06:28:39;102164.41;;;4.56;100.00
32131;BME280;18639;50.716;7.086;2023-02-11T06:31:06;102186.47;;;4.66;100.00
32131;BME280;18639;50.716;7.086;2023-02-11T06:33:33;102177.03;;;4.73;100.00
32131;BME280;18639;50.716;7.086;2023-02-11T06:35:59;102173.63;;;4.71;100.00
32131;BME280;18639;50.716;7.086;2023-02-11T06:38:24;102166.78;;;4.72;100.00
32131;BME280;18639;50.716;7.086;2023-02-11T06:40:49;102156.66;;;4.59;100.00
32131;BME280;18639;50.716;7.086;2023-02-11T06:43:15;102167.63;;;4.74;100.00
32131;BME280;18639;50.716;7.086;2023-02-11T06:45:41;102171.97;;;4.69;100.00
32131;BME280;18639;50.716;7.086;2023-02-11T06:48:06;102203.34;;;4.86;100.00
32131;BME280;18639;50.716;7.086;2023-02-11T06:50:31;102188.91;;;4.80;100.00
32131;BME280;18639;50.716;7.086;2023-02-11T06:52:58;102209.28;;;4.89;100.00
32131;BME280;18639;50.716;7.086;2023-02-11T06:55:23;102207.59;;;4.87;100.00
32131;BME280;18639;50.716;7.086;2023-02-11T06:57:49;102211.84;;;4.88;100.00
32131;BME280;18639;50.716;7.086;2023-02-11T07:00:14;102188.06;;;4.78;100.00
32131;BME280;18639;50.716;7.086;2023-02-11T07:02:40;102213.50;;;4.93;100.00
32131;BME280;18639;50.716;7.086;2023-02-11T07:05:06;102215.16;;;4.97;100.00
32131;BME280;18639;50.716;7.086;2023-02-11T07:07:32;102221.97;;;4.98;100.00
32131;BME280;18639;50.716;7.086;2023-02-11T07:09:57;102216.88;;;4.97;100.00
32131;BME280;18639;50.716;7.086;2023-02-11T07:12:22;102191.38;;;4.88;100.00
32131;BME280;18639;50.716;7.086;2023-02-11T07:14:47;102154.03;;;4.65;100.00
32131;BME280;18639;50.716;7.086;2023-02-11T07:17:13;102212.47;;;5.09;100.00
32131;BME280;18639;50.716;7.086;2023-02-11T07:19:38;102212.47;;;5.09;100.00
32131;BME280;18639;50.716;7.086;2023-02-11T07:22:04;102220.94;;;5.13;100.00
32131;BME280;18639;50.716;7.086;2023-02-11T07:24:29;102223.50;;;5.15;100.00
32131;BME280;18639;50.716;7.086;2023-02-11T07:26:54;102237.09;;;5.23;100.00
32131;BME280;18639;50.716;7.086;2023-02-11T07:29:20;102220.06;;;5.17;100.00
32131;BME280;18639;50.716;7.086;2023-02-11T07:31:45;102231.97;;;5.21;100.00
32131;BME280;18639;50.716;7.086;2023-02-11T07:34:10;102215.81;;;5.15;100.00
32131;BME280;18639;50.716;7.086;2023-02-11T07:36:36;102204.75;;;5.13;100.00
32131;BME280;18639;50.716;7.086;2023-02-11T07:39:01;102226.00;;;5.21;100.00
32131;BME280;18639;50.716;7.086;2023-02-11T07:41:30;102227.63;;;5.26;100.00
32131;BME280;18639;50.716;7.086;2023-02-11T07:43:55;102233.53;;;5.31;100.00
32131;BME280;18639;50.716;7.086;2023-02-11T07:46:25;102241.09;;;5.42;100.00
32131;BME280;18639;50.716;7.086;2023-02-11T07:48:52;102245.34;;;5.44;100.00
32131;BME280;18639;50.716;7.086;2023-02-11T07:51:19;102250.44;;;5.46;100.00
32131;BME280;18639;50.716;7.086;2023-02-11T07:53:45;102252.97;;;5.49;100.00
32131;BME280;18639;50.716;7.086;2023-02-11T07:56:12;102240.19;;;5.47;100.00
32131;BME280;18639;50.716;7.086;2023-02-11T07:58:38;102237.81;;;5.34;100.00
32131;BME280;18639;50.716;7.086;2023-02-11T08:01:08;102240.25;;;5.43;100.00
32131;BME280;18639;50.716;7.086;2023-02-11T08:03:35;102251.16;;;5.57;100.00
32131;BME280;18639;50.716;7.086;2023-02-11T08:06:08;102252.84;;;5.58;100.00
32131;BME280;18639;50.716;7.086;2023-02-11T08:08:34;102240.22;;;5.44;100.00
32131;BME280;18639;50.716;7.086;2023-02-11T08:11:26;102265.66;;;5.60;100.00
32131;BME280;18639;50.716;7.086;2023-02-11T08:13:52;102266.44;;;5.65;100.00
32131;BME280;18639;50.716;7.086;2023-02-11T08:16:24;102267.25;;;5.68;100.00
32131;BME280;18639;50.716;7.086;2023-02-11T08:18:51;102263.81;;;5.69;100.00
32131;BME280;18639;50.716;7.086;2023-02-11T08:21:17;102257.06;;;5.64;100.00
32131;BME280;18639;50.716;7.086;2023-02-11T08:23:43;102224.78;;;5.47;100.00
32131;BME280;18639;50.716;7.086;2023-02-11T08:26:17;102268.88;;;5.74;100.00
32131;BME280;18639;50.716;7.086;2023-02-11T08:28:45;102274.00;;;5.75;100.00
32131;BME280;18639;50.716;7.086;2023-02-11T08:31:22;102278.22;;;5.78;100.00
32131;BME280;18639;50.716;7.086;2023-02-11T08:33:47;102264.75;;;5.65;100.00
32131;BME280;18639;50.716;7.086;2023-02-11T08:36:20;102273.94;;;5.78;100.00
32131;BME280;18639;50.716;7.086;2023-02-11T08:38:46;102255.28;;;5.69;100.00
32131;BME280;18639;50.716;7.086;2023-02-11T08:41:13;102268.75;;;5.83;100.00
32131;BME280;18639;50.716;7.086;2023-02-11T08:43:42;102266.97;;;5.91;100.00
32131;BME280;18639;50.716;7.086;2023-02-11T08:46:13;102262.63;;;5.96;100.00
32131;BME280;18639;50.716;7.086;2023-02-11T08:48:38;102270.31;;;5.96;100.00
32131;BME280;18639;50.716;7.086;2023-02-11T08:51:06;102270.25;;;6.01;100.00
32131;BME280;18639;50.716;7.086;2023-02-11T08:53:32;102265.19;;;5.96;100.00
32131;BME280;18639;50.716;7.086;2023-02-11T08:56:01;102277.00;;;6.06;100.00
32131;BME280;18639;50.716;7.086;2023-02-11T08:58:26;102259.97;;;6.02;100.00
32131;BME280;18639;50.716;7.086;2023-02-11T09:00:52;102277.72;;;6.16;100.00
32131;BME280;18639;50.716;7.086;2023-02-11T09:03:17;102269.22;;;6.11;100.00
32131;BME280;18639;50.716;7.086;2023-02-11T09:05:44;102253.13;;;6.03;100.00
32131;BME280;18639;50.716;7.086;2023-02-11T09:08:11;102274.28;;;6.15;100.00
32131;BME280;18639;50.716;7.086;2023-02-11T09:10:36;102269.16;;;6.15;100.00
32131;BME280;18639;50.716;7.086;2023-02-11T09:13:11;102278.38;;;6.28;100.00
32131;BME280;18639;50.716;7.086;2023-02-11T09:15:37;102288.50;;;6.38;100.00
32131;BME280;18639;50.716;7.086;2023-02-11T09:18:03;102277.53;;;6.28;100.00
32131;BME280;18639;50.716;7.086;2023-02-11T09:20:29;102287.69;;;6.36;100.00
32131;BME280;18639;50.716;7.086;2023-02-11T09:22:56;102301.25;;;6.44;100.00
32131;BME280;18639;50.716;7.086;2023-02-11T09:25:41;102299.50;;;6.46;100.00
32131;BME280;18639;50.716;7.086;2023-02-11T09:28:10;102297.81;;;6.45;100.00
32131;BME280;18639;50.716;7.086;2023-02-11T09:30:36;102315.59;;;6.57;100.00
32131;BME280;18639;50.716;7.086;2023-02-11T09:33:02;102309.81;;;6.43;100.00
32131;BME280;18639;50.716;7.086;2023-02-11T09:35:27;102309.69;;;6.50;100.00
32131;BME280;18639;50.716;7.086;2023-02-11T09:37:53;102325.91;;;6.54;100.00
32131;BME280;18639;50.716;7.086;2023-02-11T09:40:18;102311.50;;;6.44;100.00
32131;BME280;18639;50.716;7.086;2023-02-11T09:45:20;102325.91;;;6.52;100.00
32131;BME280;18639;50.716;7.086;2023-02-11T09:47:50;102297.88;;;6.40;100.00
32131;BME280;18639;50.716;7.086;2023-02-11T09:50:21;102322.50;;;6.52;100.00
32131;BME280;18639;50.716;7.086;2023-02-11T09:53:01;102322.41;;;6.58;100.00
32131;BME280;18639;50.716;7.086;2023-02-11T09:55:35;102309.69;;;6.50;100.00
32131;BME280;18639;50.716;7.086;2023-02-11T09:58:09;102328.28;;;6.66;100.00
32131;BME280;18639;50.716;7.086;2023-02-11T10:00:39;102328.22;;;6.69;100.00
32131;BME280;18639;50.716;7.086;2023-02-11T10:12:02;102327.94;;;6.84;100.00
32131;BME280;18639;50.716;7.086;2023-02-11T10:17:38;102332.22;;;6.85;100.00
32131;BME280;18639;50.716;7.086;2023-02-11T10:20:27;102334.69;;;6.93;100.00
32131;BME280;18639;50.716;7.086;2023-02-11T10:23:00;102323.66;;;6.86;100.00
32131;BME280;18639;50.716;7.086;2023-02-11T10:25:51;102333.72;;;6.98;100.00
32131;BME280;18639;50.716;7.086;2023-02-11T10:28:29;102335.44;;;6.98;100.00
32131;BME280;18639;50.716;7.086;2023-02-11T10:30:58;102340.56;;;6.99;100.00
32131;BME280;18639;50.716;7.086;2023-02-11T10:33:28;102311.66;;;6.85;100.00
32131;BME280;18639;50.716;7.086;2023-02-11T10:35:55;102314.16;;;6.90;100.00
32131;BME280;18639;50.716;7.086;2023-02-11T10:38:21;102332.81;;;7.01;100.00
32131;BME280;18639;50.716;7.086;2023-02-11T10:40:47;102329.44;;;6.97;100.00
32131;BME280;18639;50.716;7.086;2023-02-11T10:43:18;102324.22;;;7.03;100.00
32131;BME280;18639;50.716;7.086;2023-02-11T10:45:49;102328.38;;;7.10;100.00
32131;BME280;18639;50.716;7.086;2023-02-11T10:51:15;102342.78;;;7.17;100.00
32131;BME280;18639;50.716;7.086;2023-02-11T10:53:41;102325.06;;;7.02;100.00
32131;BME280;18639;50.716;7.086;2023-02-11T10:56:10;102333.44;;;7.13;100.00
32131;BME280;18639;50.716;7.086;2023-02-11T10:58:55;102335.16;;;7.14;100.00
32131;BME280;18639;50.716;7.086;2023-02-11T11:01:21;102346.19;;;7.19;100.00
32131;BME280;18639;50.716;7.086;2023-02-11T11:03:51;102346.16;;;7.21;100.00
32131;BME280;18639;50.716;7.086;2023-02-11T11:06:48;102347.84;;;7.22;100.00
32131;BME280;18639;50.716;7.086;2023-02-11T11:09:27;102347.84;;;7.22;100.00
32131;BME280;18639;50.716;7.086;2023-02-11T11:11:54;102328.31;;;7.13;100.00
32131;BME280;18639;50.716;7.086;2023-02-11T11:14:20;102331.63;;;7.18;100.00
32131;BME280;18639;50.716;7.086;2023-02-11T11:16:54;102333.34;;;7.19;100.00
32131;BME280;18639;50.716;7.086;2023-02-11T11:19:22;102341.63;;;7.34;100.00
32131;BME280;18639;50.716;7.086;2023-02-11T11:21:50;102330.59;;;7.29;100.00
32131;BME280;18639;50.716;7.086;2023-02-11T11:24:31;102327.31;;;7.21;100.00
32131;BME280;18639;50.716;7.086;2023-02-11T11:27:01;102317.25;;;7.10;100.00
32131;BME280;18639;50.716;7.086;2023-02-11T11:29:38;102329.91;;;7.19;100.00
32131;BME280;18639;50.716;7.086;2023-02-11T11:32:12;102329.94;;;7.17;100.00
32131;BME280;18639;50.716;7.086;2023-02-11T11:34:42;102324.88;;;7.14;100.00
32131;BME280;18639;50.716;7.086;2023-02-11T11:37:22;102326.50;;;7.18;100.00
32131;BME280;18639;50.716;7.086;2023-02-11T11:40:22;102326.56;;;7.15;100.00
32131;BME280;18639;50.716;7.086;2023-02-11T11:45:26;102322.19;;;7.19;100.00
32131;BME280;18639;50.716;7.086;2023-02-11T11:47:59;102303.44;;;7.14;100.00
32131;BME280;18639;50.716;7.086;2023-02-11T11:50:52;102316.03;;;7.28;100.00
32131;BME280;18639;50.716;7.086;2023-02-11T11:56:12;102286.13;;;7.24;100.00
32131;BME280;18639;50.716;7.086;2023-02-11T11:58:39;102282.81;;;7.17;100.00
32131;BME280;18639;50.716;7.086;2023-02-11T12:04:12;102298.56;;;7.43;100.00
32131;BME280;18639;50.716;7.086;2023-02-11T12:07:10;102281.50;;;7.41;100.00
32131;BME280;18639;50.716;7.086;2023-02-11T12:12:25;102303.38;;;7.60;100.00
32131;BME280;18639;50.716;7.086;2023-02-11T12:17:56;102314.25;;;7.74;100.00
32131;BME280;18639;50.716;7.086;2023-02-11T12:20:42;102307.41;;;7.72;100.00
32131;BME280;18639;50.716;7.086;2023-02-11T12:28:42;102320.09;;;7.81;100.00
32131;BME280;18639;50.716;7.086;2023-02-11T12:31:22;102316.75;;;7.76;100.00
32131;BME280;18639;50.716;7.086;2023-02-11T12:37:31;102310.72;;;7.78;100.00
32131;BME280;18639;50.716;7.086;2023-02-11T12:43:35;102321.69;;;7.86;100.00
32131;BME280;18639;50.716;7.086;2023-02-11T12:48:50;102326.03;;;7.84;100.00
32131;BME280;18639;50.716;7.086;2023-02-11T12:57:17;102328.53;;;7.87;100.00
32131;BME280;18639;50.716;7.086;2023-02-11T13:00:03;102319.97;;;7.85;100.00
32131;BME280;18639;50.716;7.086;2023-02-11T13:05:26;102318.88;;;7.97;100.00
32131;BME280;18639;50.716;7.086;2023-02-11T13:08:00;102285.75;;;7.82;100.00
32131;BME280;18639;50.716;7.086;2023-02-11T13:10:32;102302.91;;;7.83;100.00
32131;BME280;18639;50.716;7.086;2023-02-11T13:12:59;102323.13;;;7.99;100.00
32131;BME280;18639;50.716;7.086;2023-02-11T13:15:43;102323.97;;;8.00;100.00
32131;BME280;18639;50.716;7.086;2023-02-11T13:18:26;102317.03;;;8.02;100.00
32131;BME280;18639;50.716;7.086;2023-02-11T13:24:01;102311.88;;;8.03;100.00
32131;BME280;18639;50.716;7.086;2023-02-11T13:30:16;102301.59;;;8.02;100.00
32131;BME280;18639;50.716;7.086;2023-02-11T13:32:13;102316.81;;;8.13;100.00
32131;BME280;18639;50.716;7.086;2023-02-11T13:37:32;102305.59;;;8.15;100.00
32131;BME280;18639;50.716;7.086;2023-02-11T13:42:33;102299.69;;;8.12;100.00
32131;BME280;18639;50.716;7.086;2023-02-11T13:51:09;102303.88;;;8.16;100.00
32131;BME280;18639;50.716;7.086;2023-02-11T13:53:55;102301.47;;;8.08;100.00
32131;BME280;18639;50.716;7.086;2023-02-11T13:56:32;102317.63;;;8.15;100.00
32131;BME280;18639;50.716;7.086;2023-02-11T13:59:00;102315.94;;;8.14;100.00
32131;BME280;18639;50.716;7.086;2023-02-11T14:04:33;102292.97;;;8.04;100.00
32131;BME280;18639;50.716;7.086;2023-02-11T14:07:27;102300.69;;;8.04;100.00
32131;BME280;18639;50.716;7.086;2023-02-11T14:16:32;102279.16;;;8.07;100.00
32131;BME280;18639;50.716;7.086;2023-02-11T14:19:00;102291.16;;;8.08;100.00
32131;BME280;18639;50.716;7.086;2023-02-11T14:23:52;102293.63;;;8.13;100.00
32131;BME280;18639;50.716;7.086;2023-02-11T14:28:45;102298.00;;;8.09;100.00
32131;BME280;18639;50.716;7.086;2023-02-11T14:31:17;102300.47;;;8.14;100.00
32131;BME280;18639;50.716;7.086;2023-02-11T14:34:13;102303.88;;;8.16;100.00
32131;BME280;18639;50.716;7.086;2023-02-11T14:36:49;102301.28;;;8.17;100.00
32131;BME280;18639;50.716;7.086;2023-02-11T14:39:40;102310.00;;;8.10;100.00
32131;BME280;18639;50.716;7.086;2023-02-11T14:42:21;102310.13;;;8.06;100.00
32131;BME280;18639;50.716;7.086;2023-02-11T14:44:52;102312.63;;;8.09;100.00
32131;BME280;18639;50.716;7.086;2023-02-11T14:47:26;102322.78;;;8.15;100.00
32131;BME280;18639;50.716;7.086;2023-02-11T14:49:55;102300.56;;;8.11;100.00
32131;BME280;18639;50.716;7.086;2023-02-11T14:52:33;102273.59;;;7.88;100.00
32131;BME280;18639;50.716;7.086;2023-02-11T14:55:12;102310.66;;;8.20;100.00
32131;BME280;18639;50.716;7.086;2023-02-11T14:57:39;102311.59;;;8.16;100.00
32131;BME280;18639;50.716;7.086;2023-02-11T15:00:16;102289.47;;;8.07;100.00
32131;BME280;18639;50.716;7.086;2023-02-11T15:02:44;102291.03;;;8.14;100.00
32131;BME280;18639;50.716;7.086;2023-02-11T15:05:24;102288.47;;;8.14;100.00
32131;BME280;18639;50.716;7.086;2023-02-11T15:08:01;102299.38;;;8.24;100.00
32131;BME280;18639;50.716;7.086;2023-02-11T15:10:31;102299.38;;;8.24;100.00
32131;BME280;18639;50.716;7.086;2023-02-11T15:12:58;102295.09;;;8.23;100.00
32131;BME280;18639;50.716;7.086;2023-02-11T15:15:25;102303.66;;;8.25;100.00
32131;BME280;18639;50.716;7.086;2023-02-11T15:17:51;102291.06;;;8.13;100.00
32131;BME280;18639;50.716;7.086;2023-02-11T15:20:26;102290.25;;;8.11;100.00
32131;BME280;18639;50.716;7.086;2023-02-11T15:22:58;102304.63;;;8.21;100.00
32131;BME280;18639;50.716;7.086;2023-02-11T15:25:24;102299.63;;;8.13;100.00
32131;BME280;18639;50.716;7.086;2023-02-11T15:27:56;102319.09;;;8.26;100.00
32131;BME280;18639;50.716;7.086;2023-02-11T15:33:18;102325.94;;;8.27;100.00
32131;BME280;18639;50.716;7.086;2023-02-11T15:35:38;102297.13;;;8.12;100.00